Time;durP1;ratioP1;P1;durP2;ratioP2;P2;SDS_P1;SDS_P2;PMS_P1;PMS_P2;Temp;Humidity;BMP_temperature;BMP_pressure;BME280_temperature;BME280_humidity;BME280_pressure;Samples;Min_cycle;Max_cycle;Signal;HPM_P1;HPM_P2
2022/07/05 00:02:03;;;;;;;6.30;1.60;;;;;;;13.20;81.75;100147.79;104864;1271;65598;-66
2022/07/05 00:04:51;;;;;;;6.40;1.60;;;;;;;13.20;81.70;100145.30;105012;1271;73170;-66
2022/07/05 00:07:40;;;;;;;8.90;1.60;;;;;;;13.19;81.59;100141.33;105107;1271;59714;-67
2022/07/05 00:10:32;;;;;;;6.30;2.10;;;;;;;13.17;81.57;100136.16;104992;1271;60414;-66
2022/07/05 00:13:20;;;;;;;7.20;1.80;;;;;;;13.14;81.56;100133.76;104956;1271;74585;-65
2022/07/05 00:16:08;;;;;;;8.50;1.50;;;;;;;13.12;81.77;100129.63;104882;1271;69672;-66
2022/07/05 00:18:56;;;;;;;4.90;1.40;;;;;;;13.10;81.89;100133.38;104886;1271;73265;-64
2022/07/05 00:21:44;;;;;;;7.90;1.60;;;;;;;13.07;81.99;100138.23;104838;1271;61693;-65
2022/07/05 00:24:33;;;;;;;6.80;1.50;;;;;;;13.05;81.63;100142.02;105049;1271;60381;-65
2022/07/05 00:27:22;;;;;;;6.60;1.50;;;;;;;13.01;81.98;100139.63;104870;1271;73874;-66
2022/07/05 00:30:11;;;;;;;6.30;1.60;;;;;;;12.99;82.28;100140.52;104872;1271;69633;-63
2022/07/05 00:32:59;;;;;;;6.70;1.50;;;;;;;12.97;82.34;100143.02;104848;1271;73469;-67
2022/07/05 00:35:48;;;;;;;7.30;1.80;;;;;;;12.92;82.36;100146.67;104883;1271;59656;-65
2022/07/05 00:38:36;;;;;;;6.10;1.80;;;;;;;12.88;82.52;100146.65;104900;1271;62076;-66
2022/07/05 00:41:25;;;;;;;6.10;1.40;;;;;;;12.85;82.64;100148.68;104789;1271;74726;-64
2022/07/05 00:44:16;;;;;;;6.00;1.70;;;;;;;12.81;82.96;100147.23;104867;1271;68569;-65
2022/07/05 00:47:06;;;;;;;7.00;1.80;;;;;;;12.80;83.33;100153.19;104855;1271;73168;-66
2022/07/05 00:49:54;;;;;;;6.40;1.70;;;;;;;12.79;83.36;100152.73;105114;1271;61307;-66
2022/07/05 00:52:42;;;;;;;6.20;1.40;;;;;;;12.80;83.59;100158.04;104890;1271;61298;-65
2022/07/05 00:55:30;;;;;;;6.10;1.60;;;;;;;12.79;83.61;100164.67;104771;1274;75195;-65
2022/07/05 00:58:18;;;;;;;7.00;1.70;;;;;;;12.80;83.61;100166.79;104959;1271;69555;-65
2022/07/05 01:01:09;;;;;;;6.60;1.40;;;;;;;12.80;83.62;100162.50;104853;1271;74405;-65
2022/07/05 01:03:58;;;;;;;6.70;1.60;;;;;;;12.81;83.61;100165.03;105026;1271;59926;-65
2022/07/05 01:06:49;;;;;;;6.70;2.20;;;;;;;12.82;83.90;100158.35;105128;1271;59651;-65
2022/07/05 01:09:37;;;;;;;6.00;1.60;;;;;;;12.83;83.53;100159.58;105082;1271;74719;-65
2022/07/05 01:12:26;;;;;;;8.60;2.10;;;;;;;12.83;83.62;100159.75;105165;1271;69596;-65
2022/07/05 01:15:14;;;;;;;7.90;1.40;;;;;;;12.83;83.47;100157.64;104952;1271;72711;-66
2022/07/05 01:18:05;;;;;;;5.80;1.50;;;;;;;12.81;83.31;100155.41;104928;1271;59692;-65
2022/07/05 01:20:54;;;;;;;5.70;1.50;;;;;;;12.81;83.59;100154.59;105139;1271;59590;-67
2022/07/05 01:23:42;;;;;;;5.70;1.60;;;;;;;12.80;83.64;100151.45;104895;1271;74976;-65
2022/07/05 01:26:32;;;;;;;7.70;1.60;;;;;;;12.80;83.62;100149.34;104776;1272;67538;-67
2022/07/05 01:29:23;;;;;;;5.80;1.70;;;;;;;12.79;83.48;100149.05;104976;1271;73332;-65
2022/07/05 01:32:13;;;;;;;6.60;1.50;;;;;;;12.77;83.68;100146.00;104946;1271;59709;-63
2022/07/05 01:35:01;;;;;;;7.30;1.60;;;;;;;12.77;83.78;100147.77;104770;1271;60906;-64
2022/07/05 01:37:51;;;;;;;6.60;2.10;;;;;;;12.76;83.75;100150.85;105097;1271;73787;-63
2022/07/05 01:40:39;;;;;;;6.50;1.70;;;;;;;12.76;83.75;100150.38;104946;1271;66556;-65
2022/07/05 01:43:28;;;;;;;6.00;1.70;;;;;;;12.72;83.67;100138.59;105103;1271;73814;-66
2022/07/05 01:46:22;;;;;;;6.60;1.60;;;;;;;12.74;83.47;100142.11;105162;1271;60003;-63
2022/07/05 01:49:15;;;;;;;6.30;1.50;;;;;;;12.76;83.65;100141.64;104770;1271;61016;-65
2022/07/05 01:52:11;;;;;;;6.20;1.70;;;;;;;12.77;83.47;100136.91;104853;1271;72575;-64
2022/07/05 01:55:01;;;;;;;7.50;1.90;;;;;;;12.78;83.52;100133.10;104924;1271;69417;-64
2022/07/05 01:57:50;;;;;;;5.70;1.70;;;;;;;12.77;83.41;100132.45;104806;1271;73247;-65
2022/07/05 02:00:51;;;;;;;6.90;1.70;;;;;;;12.75;83.37;100130.45;104764;1271;60028;-64
2022/07/05 02:03:40;;;;;;;5.90;1.70;;;;;;;12.74;83.39;100131.13;105099;1272;60367;-64
2022/07/05 02:06:45;;;;;;;9.00;1.50;;;;;;;12.73;83.48;100131.23;104939;1271;73814;-65
2022/07/05 02:09:34;;;;;;;5.80;1.30;;;;;;;12.73;83.71;100133.51;104824;1271;68688;-64
2022/07/05 02:12:23;;;;;;;8.10;1.80;;;;;;;12.72;83.66;100130.40;104806;1271;73251;-65
2022/07/05 02:15:11;;;;;;;6.10;1.60;;;;;;;12.72;83.63;100130.96;104855;1272;59590;-65
2022/07/05 02:18:01;;;;;;;5.80;1.60;;;;;;;12.72;83.92;100135.23;105014;1271;60596;-67
2022/07/05 02:20:50;;;;;;;6.40;1.60;;;;;;;12.71;83.96;100133.47;104992;1272;73156;-66
2022/07/05 02:23:38;;;;;;;7.40;1.60;;;;;;;12.71;83.89;100135.67;104856;1272;68742;-64
2022/07/05 02:26:27;;;;;;;6.80;1.80;;;;;;;12.70;83.93;100136.08;104856;1271;74514;-65
2022/07/05 02:29:16;;;;;;;6.40;1.60;;;;;;;12.70;84.09;100133.41;104964;1271;59782;-65
2022/07/05 02:32:05;;;;;;;7.80;1.70;;;;;;;12.70;84.03;100129.89;104802;1271;61794;-64
2022/07/05 02:34:56;;;;;;;6.20;1.50;;;;;;;12.71;84.27;100132.95;104897;1271;74818;-64
2022/07/05 02:37:44;;;;;;;5.60;1.60;;;;;;;12.74;84.01;100135.56;104758;1271;67836;-65
2022/07/05 02:40:32;;;;;;;7.90;1.50;;;;;;;12.77;84.36;100139.05;104748;1272;74402;-65
2022/07/05 02:43:20;;;;;;;6.10;1.70;;;;;;;12.79;84.34;100139.20;104759;1271;59863;-65
2022/07/05 02:46:10;;;;;;;7.50;1.40;;;;;;;12.82;84.13;100140.63;104868;1271;59644;-65
2022/07/05 02:48:58;;;;;;;6.80;1.40;;;;;;;12.83;84.11;100142.98;104829;1274;74732;-65
2022/07/05 02:51:50;;;;;;;6.70;1.60;;;;;;;12.84;84.27;100148.04;104779;1271;66263;-61
2022/07/05 02:54:39;;;;;;;6.30;1.30;;;;;;;12.84;84.19;100149.49;105038;1271;73371;-65
2022/07/05 02:57:28;;;;;;;6.00;1.30;;;;;;;12.85;84.29;100147.59;104769;1271;59616;-65
2022/07/05 03:00:17;;;;;;;6.10;1.30;;;;;;;12.87;84.19;100148.70;104883;1271;61146;-66
2022/07/05 03:03:07;;;;;;;5.80;1.30;;;;;;;12.91;83.99;100149.26;104758;1271;73690;-65
2022/07/05 03:05:56;;;;;;;5.40;1.50;;;;;;;12.95;83.95;100146.21;104958;1271;68850;-68
2022/07/05 03:08:44;;;;;;;5.80;1.50;;;;;;;13.00;83.84;100149.58;105046;1271;73071;-67
2022/07/05 03:11:32;;;;;;;4.90;1.30;;;;;;;13.03;83.72;100149.63;104948;1271;59991;-67
2022/07/05 03:14:21;;;;;;;6.10;1.50;;;;;;;13.06;83.73;100151.69;104821;1272;60314;-66
2022/07/05 03:17:10;;;;;;;5.70;1.50;;;;;;;13.07;83.52;100149.62;104829;1271;73836;-66
2022/07/05 03:19:58;;;;;;;6.50;1.50;;;;;;;13.08;83.53;100148.27;104832;1271;69452;-66
2022/07/05 03:22:47;;;;;;;6.80;1.50;;;;;;;13.11;83.61;100146.27;105098;1271;72393;-66
2022/07/05 03:25:37;;;;;;;5.30;1.40;;;;;;;13.14;83.56;100143.75;104983;1271;59649;-64
2022/07/05 03:28:25;;;;;;;6.60;1.50;;;;;;;13.17;83.40;100147.87;104801;1271;61031;-65
2022/07/05 03:31:14;;;;;;;6.50;1.40;;;;;;;13.22;83.07;100147.81;104891;1271;72512;-66
2022/07/05 03:34:03;;;;;;;5.80;1.70;;;;;;;13.25;83.06;100152.54;105002;1271;69143;-66
2022/07/05 03:36:51;;;;;;;7.10;1.80;;;;;;;13.28;83.17;100155.64;104838;1271;73877;-67
2022/07/05 03:39:40;;;;;;;6.70;1.90;;;;;;;13.32;83.01;100153.05;104776;1271;59711;-66
2022/07/05 03:42:29;;;;;;;7.30;1.70;;;;;;;13.35;83.03;100147.97;104709;1271;61627;-65
2022/07/05 03:45:18;;;;;;;7.90;1.80;;;;;;;13.40;82.93;100147.02;104723;1271;74753;-65
2022/07/05 03:48:06;;;;;;;5.70;1.40;;;;;;;13.45;83.25;100151.33;104752;1271;68530;-66
2022/07/05 03:51:14;;;;;;;7.10;1.70;;;;;;;13.52;82.79;100150.42;105157;1271;72972;-64
2022/07/05 03:54:03;;;;;;;6.40;1.60;;;;;;;13.61;82.54;100154.96;104969;1271;59765;-65
2022/07/05 03:56:51;;;;;;;6.60;1.90;;;;;;;13.70;82.38;100155.73;104787;1271;62077;-64
2022/07/05 03:59:40;;;;;;;6.80;1.80;;;;;;;13.80;81.89;100161.15;104779;1271;73823;-66
2022/07/05 04:02:29;;;;;;;7.60;1.70;;;;;;;13.89;81.65;100161.75;104748;1271;69809;-64
2022/07/05 04:05:17;;;;;;;5.30;1.60;;;;;;;13.98;80.91;100165.17;105521;1271;72718;-68
2022/07/05 04:08:06;;;;;;;5.80;1.70;;;;;;;14.11;80.42;100173.33;105251;1272;59796;-66
2022/07/05 04:10:59;;;;;;;7.50;1.60;;;;;;;14.23;79.88;100172.02;104847;1273;61290;-66
2022/07/05 04:13:47;;;;;;;8.40;1.50;;;;;;;14.36;79.36;100175.08;104750;1271;72530;-67
2022/07/05 04:16:37;;;;;;;5.80;1.50;;;;;;;14.51;78.97;100175.91;104912;1272;67973;-66
2022/07/05 04:19:26;;;;;;;6.30;1.60;;;;;;;14.66;78.36;100181.02;104885;1271;73595;-66
2022/07/05 04:22:14;;;;;;;6.80;1.50;;;;;;;14.80;77.80;100175.02;104893;1271;59620;-66
2022/07/05 04:25:18;;;;;;;6.90;1.70;;;;;;;14.95;77.33;100178.11;104773;1274;60999;-65
2022/07/05 04:28:10;;;;;;;6.00;1.30;;;;;;;15.13;76.58;100174.11;104800;1271;74303;-65
2022/07/05 04:30:58;;;;;;;6.70;1.40;;;;;;;15.32;75.95;100179.63;104719;1274;69304;-67
2022/07/05 04:33:47;;;;;;;7.60;1.40;;;;;;;15.54;75.10;100175.83;104816;1274;73134;-66
2022/07/05 04:36:40;;;;;;;6.10;1.20;;;;;;;15.83;73.82;100170.77;104903;1274;59829;-66
2022/07/05 04:39:28;;;;;;;7.50;1.40;;;;;;;16.16;73.03;100164.16;104875;1273;60601;-67
2022/07/05 04:42:22;;;;;;;6.00;1.30;;;;;;;16.55;71.54;100166.16;104912;1271;74696;-65
2022/07/05 04:45:10;;;;;;;5.20;1.30;;;;;;;16.98;70.17;100165.45;104918;1274;69514;-65
2022/07/05 04:47:59;;;;;;;6.10;1.20;;;;;;;17.48;68.55;100164.36;104693;1273;73466;-65
2022/07/05 04:50:47;;;;;;;6.20;1.30;;;;;;;18.10;66.96;100156.38;104807;1271;59614;-69
2022/07/05 04:53:36;;;;;;;5.20;1.20;;;;;;;18.87;65.35;100154.96;105218;1271;59639;-66
2022/07/05 04:56:24;;;;;;;5.30;1.30;;;;;;;19.64;61.92;100153.69;104889;1271;73872;-72
2022/07/05 04:59:12;;;;;;;4.70;0.90;;;;;;;20.39;59.51;100152.38;104808;1274;68073;-74
2022/07/05 05:01:59;;;;;;;8.30;1.30;;;;;;;21.13;56.37;100153.23;104807;1271;74690;-72
2022/07/05 05:04:47;;;;;;;6.10;1.20;;;;;;;21.84;54.87;100153.45;104914;1274;59743;-73
2022/07/05 05:07:38;;;;;;;6.10;1.00;;;;;;;22.58;52.01;100153.58;104983;1273;60827;-75
2022/07/05 05:10:26;;;;;;;5.10;0.90;;;;;;;23.23;49.87;100153.64;104846;1271;73619;-76
2022/07/05 05:13:14;;;;;;;6.50;1.20;;;;;;;23.87;48.06;100153.92;105307;1271;68388;-74
2022/07/05 05:16:03;;;;;;;6.60;1.10;;;;;;;24.49;46.43;100155.59;105524;1271;73454;-74
2022/07/05 05:18:51;;;;;;;6.90;1.60;;;;;;;25.07;45.01;100156.63;105970;1271;59844;-75
2022/07/05 05:21:39;;;;;;;6.00;1.10;;;;;;;25.64;43.63;100157.69;105858;1271;333320;-74
2022/07/05 05:24:27;;;;;;;4.30;0.90;;;;;;;26.12;42.12;100155.65;106035;1273;73723;-74
2022/07/05 05:27:15;;;;;;;6.40;1.20;;;;;;;26.43;40.35;100152.50;105746;1271;70290;-75
2022/07/05 05:30:03;;;;;;;5.20;1.00;;;;;;;26.78;39.29;100148.87;105335;1271;73625;-76
2022/07/05 05:32:52;;;;;;;6.10;1.20;;;;;;;27.10;39.37;100155.35;105216;1271;59685;-75
2022/07/05 05:35:40;;;;;;;6.10;0.90;;;;;;;27.61;38.47;100156.06;105162;1271;60870;-75
2022/07/05 05:38:34;;;;;;;5.60;0.90;;;;;;;27.99;37.29;100156.95;105781;1271;72709;-76
2022/07/05 05:41:23;;;;;;;4.30;0.80;;;;;;;28.24;36.18;100149.20;105139;1273;66776;-78
2022/07/05 05:44:10;;;;;;;4.20;0.80;;;;;;;28.26;35.66;100150.55;105110;1271;72887;-75
2022/07/05 05:47:01;;;;;;;7.40;1.40;;;;;;;27.75;36.62;100154.76;105078;1271;59707;-76
2022/07/05 05:49:49;;;;;;;5.00;0.80;;;;;;;27.76;37.09;100158.60;105019;1271;61125;-67
2022/07/05 05:52:37;;;;;;;4.40;0.80;;;;;;;27.42;36.63;100161.11;104909;1271;74086;-73
2022/07/05 05:55:28;;;;;;;6.20;0.90;;;;;;;27.36;37.54;100162.48;104864;1271;68219;-79
2022/07/05 05:58:23;;;;;;;5.60;0.90;;;;;;;28.06;35.93;100162.62;105285;1271;73091;-74
2022/07/05 06:01:11;;;;;;;4.50;0.70;;;;;;;28.52;35.08;100162.55;104878;1273;59701;-76
2022/07/05 06:03:59;;;;;;;5.40;0.90;;;;;;;29.15;34.51;100160.73;105111;1274;60230;-72
2022/07/05 06:06:47;;;;;;;6.60;1.00;;;;;;;29.94;33.24;100162.56;104949;1271;73661;-68
2022/07/05 06:09:36;;;;;;;5.90;0.80;;;;;;;30.56;31.89;100160.65;105001;1271;67480;-69
2022/07/05 06:12:24;;;;;;;5.70;1.00;;;;;;;31.06;31.31;100164.72;105089;1271;72667;-69
2022/07/05 06:15:12;;;;;;;4.90;0.70;;;;;;;31.67;30.78;100169.77;105056;1272;59768;-75
2022/07/05 06:18:00;;;;;;;4.90;0.60;;;;;;;32.30;29.74;100170.61;104878;1271;59681;-73
2022/07/05 06:20:49;;;;;;;5.50;0.90;;;;;;;32.90;28.51;100175.36;105349;1271;72482;-72
2022/07/05 06:23:36;;;;;;;4.40;0.80;;;;;;;33.21;27.28;100178.80;104846;1271;67900;-70
2022/07/05 06:26:24;;;;;;;5.30;0.90;;;;;;;33.59;27.23;100177.45;104867;1271;74545;-83
2022/07/05 06:29:12;;;;;;;4.60;0.70;;;;;;;33.89;26.52;100178.39;105159;1271;59543;-75
2022/07/05 06:32:00;;;;;;;9.20;1.10;;;;;;;34.30;25.87;100181.30;104885;1271;59546;-76
2022/07/05 06:34:49;;;;;;;7.60;1.10;;;;;;;34.39;25.67;100181.21;104918;1271;74556;-73
2022/07/05 06:38:01;;;;;;;5.20;0.80;;;;;;;34.70;25.43;100188.71;105046;1271;68844;-70
2022/07/05 06:40:48;;;;;;;4.60;0.60;;;;;;;34.89;24.29;100179.44;105063;1271;73173;-80
2022/07/05 06:43:36;;;;;;;5.70;0.60;;;;;;;35.05;24.50;100178.58;105401;1271;59598;-81
2022/07/05 06:46:29;;;;;;;6.10;0.70;;;;;;;35.16;24.28;100181.04;104936;1271;60247;-75
2022/07/05 06:49:17;;;;;;;5.50;0.70;;;;;;;33.88;25.19;100186.17;104752;1271;73700;-74
2022/07/05 06:52:05;;;;;;;5.90;0.80;;;;;;;31.50;27.83;100182.11;104853;1271;66976;-71
2022/07/05 06:54:53;;;;;;;5.80;1.20;;;;;;;29.60;30.57;100192.18;104878;1271;74293;-71
2022/07/05 06:57:45;;;;;;;4.90;0.80;;;;;;;28.52;32.51;100193.52;105233;1271;59688;-71
2022/07/05 07:00:53;;;;;;;6.30;1.20;;;;;;;27.49;34.38;100194.80;105186;1271;62071;-72
2022/07/05 07:04:01;;;;;;;4.90;0.90;;;;;;;27.89;34.26;100189.60;105035;1271;73672;-68
2022/07/05 07:09:17;;;;;;;5.40;1.00;;;;;;;28.78;33.10;100187.00;105135;1271;67738;-69
2022/07/05 07:10:16;;;;;;;4.60;0.80;;;;;;;29.27;32.10;100186.49;105324;1271;72368;-77
2022/07/05 07:13:05;;;;;;;5.50;0.70;;;;;;;29.69;31.20;100186.45;105452;1271;59932;-74
2022/07/05 07:15:52;;;;;;;14.80;9.20;;;;;;;30.23;30.72;100186.77;104982;1271;59401;-68
2022/07/05 07:18:41;;;;;;;8.50;2.00;;;;;;;30.45;30.35;100183.48;104920;1271;72732;-70
2022/07/05 07:21:49;;;;;;;6.80;1.50;;;;;;;30.77;29.99;100180.64;104882;1271;69303;-72
2022/07/05 07:24:38;;;;;;;6.50;1.80;;;;;;;31.30;29.04;100173.74;104719;1273;72353;-71
2022/07/05 07:27:26;;;;;;;6.90;1.30;;;;;;;31.03;28.78;100174.67;104828;1271;59642;-75
2022/07/05 07:30:17;;;;;;;7.30;2.60;;;;;;;30.74;28.99;100177.15;105526;1271;61395;-74
2022/07/05 07:33:05;;;;;;;4.90;0.90;;;;;;;31.07;28.39;100173.20;105191;1271;73240;-74
2022/07/05 07:36:04;;;;;;;5.00;0.80;;;;;;;30.98;28.73;100178.94;104722;1273;67984;-75
2022/07/05 07:38:52;;;;;;;5.20;1.10;;;;;;;31.41;28.18;100174.88;105182;1271;74305;-72
2022/07/05 07:41:39;;;;;;;4.60;0.70;;;;;;;31.36;28.15;100175.58;104921;1274;59621;-74
2022/07/05 07:44:28;;;;;;;4.90;0.80;;;;;;;31.33;28.41;100177.14;104952;1274;61629;-75
2022/07/05 07:47:16;;;;;;;4.80;0.70;;;;;;;30.79;29.16;100181.55;104975;1273;74697;-75
2022/07/05 07:50:06;;;;;;;4.40;0.90;;;;;;;29.42;30.75;100183.20;104944;1273;69694;-73
2022/07/05 07:52:53;;;;;;;3.60;0.60;;;;;;;28.45;32.32;100178.80;105014;1271;73768;-74
2022/07/05 07:55:41;;;;;;;6.40;1.00;;;;;;;28.15;33.25;100177.52;105076;1271;59630;-73
2022/07/05 07:58:35;;;;;;;4.50;1.00;;;;;;;27.26;34.32;100181.95;104669;1271;60221;-76
2022/07/05 08:01:24;;;;;;;5.60;1.00;;;;;;;27.06;34.98;100179.27;105034;1271;72358;-75
2022/07/05 08:04:14;;;;;;;6.90;1.20;;;;;;;27.66;34.71;100174.08;104807;1272;68618;-76
2022/07/05 08:07:04;;;;;;;5.50;1.10;;;;;;;28.56;33.21;100172.86;105227;1271;73798;-74
2022/07/05 08:09:52;;;;;;;6.40;1.10;;;;;;;28.48;33.34;100171.52;104981;1271;59801;-73
2022/07/05 08:12:40;;;;;;;12.70;6.90;;;;;;;28.80;32.12;100169.48;105170;1271;59628;-75
2022/07/05 08:15:29;;;;;;;8.20;4.20;;;;;;;28.48;32.73;100172.44;104908;1271;74806;-76
2022/07/05 08:21:39;;;;;;;8.70;3.40;;;;;;;27.46;33.96;100177.77;105033;1271;73374;-74
2022/07/05 08:24:28;;;;;;;7.90;2.50;;;;;;;27.37;34.30;100177.37;104915;1271;60540;-72
2022/07/05 08:27:17;;;;;;;11.60;7.90;;;;;;;27.42;34.71;100176.98;104840;1271;62233;-77
2022/07/05 08:30:06;;;;;;;7.90;3.10;;;;;;;27.21;34.79;100172.94;105077;1271;74580;-72
2022/07/05 08:32:55;;;;;;;5.00;1.40;;;;;;;27.02;34.93;100176.02;104899;1271;68703;-74
2022/07/05 08:35:43;;;;;;;4.50;1.20;;;;;;;27.68;34.39;100175.64;104856;1271;73682;-73
2022/07/05 08:38:32;;;;;;;5.80;1.10;;;;;;;28.81;32.49;100169.16;104950;1271;59765;-75
2022/07/05 08:41:22;;;;;;;6.80;1.10;;;;;;;29.15;31.56;100166.42;105570;1271;59603;-76
2022/07/05 08:44:14;;;;;;;7.50;1.40;;;;;;;28.37;32.41;100162.97;105409;1271;74184;-74
2022/07/05 08:47:03;;;;;;;4.80;1.10;;;;;;;28.59;32.46;100167.47;105252;1273;68367;-75
2022/07/05 08:49:52;;;;;;;4.90;1.00;;;;;;;28.81;31.66;100166.48;105830;1271;74284;-73
2022/07/05 08:52:43;;;;;;;6.10;0.90;;;;;;;28.65;31.43;100168.56;106121;1270;59615;-72
2022/07/05 08:55:34;;;;;;;5.20;1.40;;;;;;;29.33;30.73;100164.94;105692;1271;61081;-73
2022/07/05 08:58:23;;;;;;;7.50;1.30;;;;;;;30.31;29.51;100160.10;105860;1273;73413;-74
2022/07/05 09:01:13;;;;;;;4.30;0.90;;;;;;;30.61;28.89;100159.37;105577;1271;67113;-76
2022/07/05 09:04:09;;;;;;;6.60;1.30;;;;;;;31.16;28.28;100159.80;105197;1271;73293;-78
2022/07/05 09:07:04;;;;;;;6.90;1.00;;;;;;;31.90;27.09;100156.38;105418;1271;59502;-73
2022/07/05 09:09:52;;;;;;;6.50;1.10;;;;;;;31.10;27.19;100151.89;105204;1271;60007;-73
2022/07/05 09:12:40;;;;;;;6.80;1.50;;;;;;;30.05;28.71;100163.91;104869;1271;72630;-74
2022/07/05 09:15:29;;;;;;;6.50;1.20;;;;;;;30.56;28.83;100158.13;105023;1271;68017;-75
2022/07/05 09:18:45;;;;;;;6.70;1.10;;;;;;;30.19;29.48;100162.80;104902;1271;74379;-73
2022/07/05 09:21:35;;;;;;;4.90;1.10;;;;;;;29.22;30.37;100157.01;104876;1271;59784;-74
2022/07/05 09:24:25;;;;;;;5.90;1.50;;;;;;;28.53;31.24;100166.05;105305;1271;60770;-74
2022/07/05 09:27:13;;;;;;;6.20;1.40;;;;;;;27.89;32.20;100162.04;104988;1271;73674;-75
2022/07/05 09:30:02;;;;;;;9.20;5.20;;;;;;;27.39;32.92;100162.19;105001;1271;68723;-71
2022/07/05 09:33:14;;;;;;;5.00;1.20;;;;;;;26.98;34.26;100154.05;104888;1271;74268;-73
2022/07/05 09:36:03;;;;;;;6.90;1.70;;;;;;;26.79;34.43;100146.84;105044;1271;59807;-72
2022/07/05 09:38:51;;;;;;;7.80;3.20;;;;;;;27.79;33.46;100146.15;104830;1271;62011;-73
2022/07/05 09:41:39;;;;;;;5.60;1.20;;;;;;;28.75;31.66;100135.61;105187;1271;73611;-74
2022/07/05 09:44:28;;;;;;;6.10;1.50;;;;;;;29.21;31.18;100130.46;104753;1271;68086;-74
2022/07/05 09:47:19;;;;;;;7.10;2.00;;;;;;;30.18;30.07;100119.27;104823;1271;74401;-73
2022/07/05 09:50:09;;;;;;;5.80;1.30;;;;;;;31.16;28.52;100114.23;105063;1271;59688;-73
2022/07/05 09:52:58;;;;;;;5.00;1.00;;;;;;;31.96;26.96;100117.33;105391;1271;59541;-72
2022/07/05 09:56:03;;;;;;;9.60;1.20;;;;;;;31.77;26.09;100118.19;105073;1271;74655;-72
2022/07/05 09:58:51;;;;;;;7.60;1.40;;;;;;;31.99;26.58;100110.75;104656;1271;68127;-73
2022/07/05 10:01:42;;;;;;;6.60;1.20;;;;;;;31.61;26.60;100117.63;105012;1271;72659;-71
2022/07/05 10:04:30;;;;;;;6.40;1.30;;;;;;;31.52;26.92;100112.05;104875;1272;59730;-73
2022/07/05 10:07:31;;;;;;;5.00;1.20;;;;;;;31.72;26.47;100118.35;105017;1271;60801;-77
2022/07/05 10:10:23;;;;;;;6.00;1.10;;;;;;;31.50;25.77;100117.59;105000;1271;74033;-70
2022/07/05 10:13:16;;;;;;;5.00;1.10;;;;;;;31.92;25.54;100124.38;104938;1271;66760;-70
2022/07/05 10:16:05;;;;;;;5.40;1.40;;;;;;;32.35;24.80;100125.22;104848;1271;74212;-71
2022/07/05 10:18:57;;;;;;;5.40;1.00;;;;;;;32.91;24.50;100122.24;105200;1271;59762;-72
2022/07/05 10:21:45;;;;;;;5.90;1.00;;;;;;;32.24;25.04;100118.84;104872;1271;60402;-72
2022/07/05 10:24:54;;;;;;;7.00;1.10;;;;;;;31.65;26.24;100114.84;105411;1271;73930;-72
2022/07/05 10:27:43;;;;;;;6.90;1.10;;;;;;;31.52;26.35;100114.09;104818;1271;69630;-68
2022/07/05 10:30:33;;;;;;;7.90;1.30;;;;;;;30.88;27.60;100115.13;104897;1271;73226;-72
2022/07/05 10:33:26;;;;;;;4.80;1.10;;;;;;;30.11;28.04;100121.06;104800;1271;59777;-69
2022/07/05 10:36:14;;;;;;;4.90;1.10;;;;;;;29.24;29.03;100121.02;104748;1272;60791;-69
2022/07/05 10:39:03;;;;;;;7.40;1.10;;;;;;;28.69;30.50;100116.05;104757;1271;73901;-70
2022/07/05 10:41:53;;;;;;;5.50;1.20;;;;;;;28.30;31.07;100121.06;104815;1271;68468;-70
2022/07/05 10:44:41;;;;;;;6.20;1.10;;;;;;;27.91;31.83;100121.55;104863;1271;72193;-71
2022/07/05 10:47:32;;;;;;;5.50;1.20;;;;;;;27.55;32.02;100125.28;104990;1271;59784;-69
2022/07/05 10:50:22;;;;;;;4.70;1.40;;;;;;;26.98;33.79;100129.73;104639;1271;60265;-69
2022/07/05 10:53:15;;;;;;;5.60;1.50;;;;;;;26.23;37.02;100143.14;104748;1271;73583;-70
2022/07/05 10:56:04;;;;;;;6.90;1.80;;;;;;;25.49;39.04;100142.27;104801;1271;66983;-72
2022/07/05 10:59:09;;;;;;;7.30;1.80;;;;;;;25.08;39.99;100136.90;104995;1271;74547;-71
2022/07/05 11:02:13;;;;;;;5.80;1.80;;;;;;;24.59;41.48;100140.32;104909;1271;59775;-70
2022/07/05 11:05:02;;;;;;;7.80;2.10;;;;;;;24.16;42.06;100141.09;105058;1271;60662;-70
2022/07/05 11:08:03;;;;;;;5.90;1.70;;;;;;;24.05;42.83;100142.57;104884;1271;74502;-71
2022/07/05 11:11:13;;;;;;;6.10;1.80;;;;;;;23.91;44.08;100148.67;105003;1271;68568;-73
2022/07/05 11:14:03;;;;;;;6.70;1.60;;;;;;;23.54;44.72;100151.79;105129;1271;72970;-72
2022/07/05 11:17:11;;;;;;;7.80;1.70;;;;;;;23.26;44.96;100151.58;104804;1271;60745;-71
2022/07/05 11:20:32;;;;;;;7.10;1.80;;;;;;;23.05;45.62;100149.05;105115;1271;60250;-72
2022/07/05 11:23:28;;;;;;;5.30;1.80;;;;;;;22.99;46.26;100152.01;104932;1271;71858;-70
2022/07/05 11:26:18;;;;;;;6.80;2.00;;;;;;;22.81;46.79;100153.02;104824;1271;68576;-72
2022/07/05 11:29:26;;;;;;;9.30;2.30;;;;;;;22.73;47.59;100149.66;104812;1271;73453;-72
2022/07/05 11:32:17;;;;;;;5.80;1.90;;;;;;;22.83;47.97;100145.34;104875;1271;59596;-73
2022/07/05 11:35:18;;;;;;;6.40;2.00;;;;;;;23.23;47.79;100142.23;104882;1271;60397;-73
2022/07/05 11:38:07;;;;;;;5.60;1.90;;;;;;;23.63;46.84;100136.23;104803;1271;73554;-72
2022/07/05 11:41:15;;;;;;;7.20;1.70;;;;;;;24.43;44.96;100125.45;105069;1271;67075;-71
2022/07/05 11:44:06;;;;;;;6.10;2.10;;;;;;;24.82;44.18;100131.95;104868;1271;73030;-71
2022/07/05 11:46:54;;;;;;;6.70;2.00;;;;;;;25.16;42.78;100125.86;104769;1272;60051;-70
2022/07/05 11:49:59;;;;;;;6.20;1.60;;;;;;;25.31;42.63;100126.98;104986;1271;61653;-70
2022/07/05 11:52:51;;;;;;;6.00;2.00;;;;;;;25.33;41.99;100122.27;104889;1271;74752;-70
2022/07/05 11:55:39;;;;;;;5.20;1.40;;;;;;;25.23;41.79;100115.27;104723;1274;68365;-68
2022/07/05 11:58:32;;;;;;;7.40;1.70;;;;;;;25.29;42.35;100110.23;104834;1271;73963;-67
2022/07/05 12:01:20;;;;;;;6.50;1.70;;;;;;;25.38;43.10;100114.63;104677;1273;59761;-67
2022/07/05 12:04:08;;;;;;;5.90;1.40;;;;;;;25.51;42.27;100118.27;104758;1273;61605;-68
2022/07/05 12:06:58;;;;;;;5.70;1.50;;;;;;;25.34;41.50;100111.21;104859;1271;73676;-72
2022/07/05 12:13:08;;;;;;;6.50;1.50;;;;;;;25.13;42.35;100104.59;104773;1271;72712;-71
2022/07/05 12:16:02;;;;;;;7.30;1.90;;;;;;;25.10;42.96;100111.71;105120;1271;59817;-72
2022/07/05 12:19:00;;;;;;;6.20;1.50;;;;;;;24.81;44.01;100120.98;104849;1271;60606;-70
2022/07/05 12:21:55;;;;;;;7.10;1.70;;;;;;;24.50;44.81;100115.59;104885;1271;74038;-70
2022/07/05 12:24:43;;;;;;;6.00;1.40;;;;;;;24.30;44.59;100123.21;104853;1271;69862;-71
2022/07/05 12:27:33;;;;;;;5.40;1.50;;;;;;;24.06;45.41;100127.11;104791;1271;73410;-71
2022/07/05 12:30:23;;;;;;;7.10;1.60;;;;;;;23.81;46.03;100125.93;105121;1271;59782;-70
2022/07/05 12:33:12;;;;;;;5.90;1.80;;;;;;;23.69;46.66;100121.23;104812;1271;61044;-71
2022/07/05 12:36:01;;;;;;;6.30;1.80;;;;;;;23.95;47.42;100125.19;104848;1271;74865;-71
2022/07/05 12:38:49;;;;;;;7.70;1.70;;;;;;;24.17;48.06;100128.38;104826;1271;69113;-68
2022/07/05 12:41:43;;;;;;;9.10;2.10;;;;;;;24.34;49.12;100140.19;104646;1271;73213;-72
2022/07/05 12:44:30;;;;;;;8.90;1.90;;;;;;;24.50;50.05;100138.52;104763;1271;59529;-71
2022/07/05 12:47:18;;;;;;;7.10;1.80;;;;;;;24.28;50.49;100139.94;104798;1271;60226;-71
2022/07/05 12:50:07;;;;;;;6.20;1.80;;;;;;;24.05;51.45;100135.20;104889;1271;75194;-72
2022/07/05 12:59:22;;;;;;;7.10;1.60;;;;;;;24.17;52.62;100134.19;105071;1271;59646;-71
2022/07/05 13:02:13;;;;;;;6.20;1.50;;;;;;;24.22;52.15;100129.10;104923;1271;62093;-72
2022/07/05 13:05:01;;;;;;;8.10;1.90;;;;;;;24.20;52.30;100128.95;105004;1271;73581;-72
2022/07/05 13:07:51;;;;;;;8.80;2.10;;;;;;;24.19;52.18;100135.95;105075;1271;67442;-70
2022/07/05 13:10:46;;;;;;;10.80;2.00;;;;;;;24.24;52.25;100134.02;104871;1271;74451;-70
2022/07/05 13:13:34;;;;;;;8.90;2.40;;;;;;;24.38;51.78;100130.27;104840;1271;59666;-73
2022/07/05 13:16:22;;;;;;;9.80;2.10;;;;;;;24.56;51.10;100127.30;104829;1271;61020;-72
2022/07/05 13:19:12;;;;;;;8.40;1.80;;;;;;;24.56;50.84;100126.98;104767;1272;72701;-71